VLG4VM LEZL-GMMI
Flight info
| Callsign | VLG4VM |
|---|---|
| Flight time | 1h 3m |
| Altitude | 35000 |
| Route | CLANA DCT KORNO UN857 IBALU UR724 ESS |
| Aircraft | A320/M-SDE3FGHIRWY/LB1 |
Departure
| Time | 2026-04-24 22:07 |
|---|---|
| Airport | Seville Airport (LEZL) |
Arrival
| Time | 2026-04-24 23:10 |
|---|---|
| Airport | Essaouira-Mogador Airport (GMMI) |
| Time | Latitude | Longitude | Altitude | Speed | Heading |
|---|---|---|---|---|---|
| 2026-04-24 21:53 | 37.42092 | -5.89852 | 95 ft | 0 kts | 314° |
| 2026-04-24 22:02 | 37.42111 | -5.89877 | 94 ft | 6 kts | 315° |
| 2026-04-24 22:02 | 37.42154 | -5.89890 | 94 ft | 9 kts | 24° |
| 2026-04-24 22:02 | 37.42212 | -5.89827 | 93 ft | 11 kts | 42° |
| 2026-04-24 22:03 | 37.42265 | -5.89765 | 93 ft | 9 kts | 52° |
| 2026-04-24 22:03 | 37.42249 | -5.89700 | 94 ft | 7 kts | 129° |
| 2026-04-24 22:03 | 37.42206 | -5.89642 | 96 ft | 12 kts | 133° |
| 2026-04-24 22:03 | 37.42135 | -5.89551 | 97 ft | 17 kts | 132° |
| 2026-04-24 22:04 | 37.42047 | -5.89439 | 98 ft | 18 kts | 134° |
| 2026-04-24 22:04 | 37.41985 | -5.89315 | 101 ft | 16 kts | 84° |
| 2026-04-24 22:04 | 37.41983 | -5.89188 | 100 ft | 13 kts | 91° |
| 2026-04-24 22:04 | 37.41982 | -5.89080 | 101 ft | 11 kts | 90° |
| 2026-04-24 22:05 | 37.41983 | -5.88989 | 101 ft | 9 kts | 88° |
| 2026-04-24 22:05 | 37.41985 | -5.88904 | 102 ft | 13 kts | 88° |
| 2026-04-24 22:05 | 37.41983 | -5.88780 | 102 ft | 13 kts | 103° |
| 2026-04-24 22:05 | 37.41916 | -5.88758 | 103 ft | 10 kts | 186° |
| 2026-04-24 22:06 | 37.41838 | -5.88774 | 104 ft | 15 kts | 189° |
| 2026-04-24 22:06 | 37.41803 | -5.88854 | 104 ft | 12 kts | 289° |
| 2026-04-24 22:06 | 37.41789 | -5.89083 | 102 ft | 55 kts | 272° |
| 2026-04-24 22:06 | 37.41791 | -5.89886 | 99 ft | 124 kts | 270° |
| 2026-04-24 22:07 | 37.41801 | -5.91125 | 452 ft | 147 kts | 273° |
| 2026-04-24 22:07 | 37.42044 | -5.92382 | 1239 ft | 147 kts | 287° |
| 2026-04-24 22:07 | 37.42447 | -5.93548 | 2018 ft | 143 kts | 296° |
| 2026-04-24 22:07 | 37.42916 | -5.94715 | 2472 ft | 157 kts | 289° |
| 2026-04-24 22:08 | 37.43241 | -5.96105 | 2798 ft | 174 kts | 283° |
| 2026-04-24 22:08 | 37.43486 | -5.97656 | 3245 ft | 186 kts | 282° |
| 2026-04-24 22:08 | 37.43673 | -5.99329 | 3663 ft | 201 kts | 269° |
| 2026-04-24 22:08 | 37.43262 | -6.01127 | 3914 ft | 235 kts | 241° |
| 2026-04-24 22:09 | 37.42115 | -6.02738 | 4344 ft | 258 kts | 219° |
| 2026-04-24 22:09 | 37.40546 | -6.03909 | 4937 ft | 274 kts | 205° |
| 2026-04-24 22:09 | 37.38753 | -6.04840 | 5671 ft | 282 kts | 201° |
| 2026-04-24 22:09 | 37.36891 | -6.05636 | 6608 ft | 283 kts | 195° |
| 2026-04-24 22:10 | 37.34971 | -6.06199 | 7472 ft | 285 kts | 190° |
| 2026-04-24 22:10 | 37.33002 | -6.06523 | 8316 ft | 288 kts | 182° |
| 2026-04-24 22:10 | 37.31026 | -6.06091 | 9046 ft | 291 kts | 151° |
| 2026-04-24 22:10 | 37.29338 | -6.04694 | 9877 ft | 293 kts | 146° |
| 2026-04-24 22:11 | 37.27421 | -6.03794 | 10596 ft | 301 kts | 174° |
| 2026-04-24 22:11 | 37.25283 | -6.04170 | 10823 ft | 325 kts | 204° |
| 2026-04-24 22:11 | 37.23336 | -6.05774 | 11022 ft | 348 kts | 220° |
| 2026-04-24 22:11 | 37.21488 | -6.07885 | 11141 ft | 370 kts | 224° |
| 2026-04-24 22:12 | 37.19582 | -6.10189 | 11282 ft | 391 kts | 223° |
| 2026-04-24 22:12 | 37.17565 | -6.12485 | 11670 ft | 401 kts | 220° |
| 2026-04-24 22:12 | 37.15402 | -6.14726 | 12261 ft | 405 kts | 218° |
| 2026-04-24 22:12 | 37.13195 | -6.16830 | 12868 ft | 408 kts | 216° |
| 2026-04-24 22:13 | 37.10889 | -6.18911 | 13466 ft | 411 kts | 215° |
| 2026-04-24 22:13 | 37.08534 | -6.20981 | 14029 ft | 415 kts | 214° |
| 2026-04-24 22:13 | 37.06158 | -6.23063 | 14554 ft | 418 kts | 215° |
| 2026-04-24 22:13 | 37.03782 | -6.25164 | 15074 ft | 420 kts | 215° |
| 2026-04-24 22:14 | 37.01391 | -6.27299 | 15591 ft | 423 kts | 216° |
| 2026-04-24 22:14 | 36.98992 | -6.29459 | 16094 ft | 426 kts | 216° |
| 2026-04-24 22:14 | 36.96615 | -6.31611 | 16591 ft | 428 kts | 216° |
| 2026-04-24 22:14 | 36.94169 | -6.33830 | 17085 ft | 431 kts | 216° |
| 2026-04-24 22:15 | 36.91764 | -6.36012 | 17568 ft | 434 kts | 216° |
| 2026-04-24 22:15 | 36.89312 | -6.38234 | 18051 ft | 436 kts | 216° |
| 2026-04-24 22:15 | 36.86843 | -6.40468 | 18509 ft | 439 kts | 216° |
| 2026-04-24 22:15 | 36.84357 | -6.42713 | 18904 ft | 442 kts | 216° |
| 2026-04-24 22:16 | 36.81862 | -6.44962 | 19279 ft | 445 kts | 216° |
| 2026-04-24 22:16 | 36.79343 | -6.47229 | 19672 ft | 447 kts | 216° |
| 2026-04-24 22:16 | 36.76803 | -6.49511 | 20004 ft | 451 kts | 216° |
| 2026-04-24 22:16 | 36.74251 | -6.51799 | 20328 ft | 455 kts | 216° |
| 2026-04-24 22:17 | 36.71670 | -6.54111 | 20668 ft | 458 kts | 216° |
| 2026-04-24 22:17 | 36.69072 | -6.56438 | 20996 ft | 461 kts | 216° |
| 2026-04-24 22:17 | 36.66455 | -6.58780 | 21325 ft | 464 kts | 216° |
| 2026-04-24 22:17 | 36.63819 | -6.61137 | 21637 ft | 467 kts | 216° |
| 2026-04-24 22:18 | 36.61176 | -6.63503 | 21947 ft | 470 kts | 216° |
| 2026-04-24 22:18 | 36.58507 | -6.65891 | 22258 ft | 473 kts | 215° |
| 2026-04-24 22:18 | 36.55856 | -6.68260 | 22551 ft | 476 kts | 216° |
| 2026-04-24 22:18 | 36.53161 | -6.70664 | 22856 ft | 479 kts | 215° |
| 2026-04-24 22:19 | 36.50446 | -6.73096 | 23135 ft | 482 kts | 216° |
| 2026-04-24 22:19 | 36.47774 | -6.75639 | 23416 ft | 485 kts | 218° |
| 2026-04-24 22:19 | 36.45162 | -6.78293 | 23684 ft | 487 kts | 220° |
| 2026-04-24 22:19 | 36.42573 | -6.81035 | 23935 ft | 490 kts | 220° |
| 2026-04-24 22:20 | 36.39990 | -6.83810 | 24198 ft | 491 kts | 220° |
| 2026-04-24 22:20 | 36.37402 | -6.86580 | 24560 ft | 490 kts | 221° |
| 2026-04-24 22:20 | 36.34816 | -6.89303 | 24959 ft | 488 kts | 220° |
| 2026-04-24 22:20 | 36.32212 | -6.91996 | 25352 ft | 486 kts | 220° |
| 2026-04-24 22:21 | 36.29604 | -6.94658 | 25769 ft | 484 kts | 220° |
| 2026-04-24 22:21 | 36.27008 | -6.97295 | 26176 ft | 483 kts | 220° |
| 2026-04-24 22:21 | 36.24411 | -6.99931 | 26570 ft | 481 kts | 221° |
| 2026-04-24 22:21 | 36.21824 | -7.02563 | 26975 ft | 480 kts | 221° |
| 2026-04-24 22:22 | 36.19255 | -7.05184 | 27375 ft | 479 kts | 221° |
| 2026-04-24 22:22 | 36.16685 | -7.07807 | 27785 ft | 478 kts | 221° |
| 2026-04-24 22:22 | 36.14122 | -7.10425 | 28185 ft | 477 kts | 221° |
| 2026-04-24 22:22 | 36.11574 | -7.13028 | 28604 ft | 476 kts | 221° |
| 2026-04-24 22:23 | 36.09022 | -7.15630 | 29015 ft | 474 kts | 221° |
| 2026-04-24 22:23 | 36.06508 | -7.18189 | 29424 ft | 473 kts | 221° |
| 2026-04-24 22:23 | 36.03973 | -7.20765 | 29842 ft | 472 kts | 221° |
| 2026-04-24 22:23 | 36.01434 | -7.23345 | 30152 ft | 473 kts | 225° |
| 2026-04-24 22:24 | 35.98876 | -7.25949 | 30289 ft | 478 kts | 225° |
| 2026-04-24 22:24 | 35.96308 | -7.28558 | 30528 ft | 480 kts | 225° |
| 2026-04-24 22:24 | 35.93723 | -7.31174 | 30829 ft | 480 kts | 225° |
| 2026-04-24 22:24 | 35.91140 | -7.33786 | 31154 ft | 479 kts | 225° |
| 2026-04-24 22:25 | 35.88559 | -7.36393 | 31484 ft | 479 kts | 225° |
| 2026-04-24 22:25 | 35.85980 | -7.38995 | 31809 ft | 478 kts | 225° |
| 2026-04-24 22:25 | 35.83413 | -7.41583 | 32144 ft | 477 kts | 225° |
| 2026-04-24 22:25 | 35.80839 | -7.44170 | 32479 ft | 477 kts | 225° |
| 2026-04-24 22:26 | 35.78261 | -7.46747 | 32794 ft | 476 kts | 225° |
| 2026-04-24 22:26 | 35.75692 | -7.49305 | 33132 ft | 476 kts | 225° |
| 2026-04-24 22:26 | 35.73115 | -7.51865 | 33454 ft | 475 kts | 225° |
| 2026-04-24 22:26 | 35.70544 | -7.54423 | 33787 ft | 474 kts | 225° |
| 2026-04-24 22:27 | 35.67985 | -7.56969 | 34111 ft | 474 kts | 225° |
| 2026-04-24 22:27 | 35.65419 | -7.59517 | 34401 ft | 473 kts | 225° |
| 2026-04-24 22:27 | 35.62859 | -7.62059 | 34667 ft | 472 kts | 226° |
| 2026-04-24 22:27 | 35.60316 | -7.64586 | 34964 ft | 470 kts | 226° |
| 2026-04-24 22:28 | 35.57770 | -7.67116 | 35124 ft | 470 kts | 226° |
| 2026-04-24 22:28 | 35.52645 | -7.72214 | 35151 ft | 477 kts | 226° |
| 2026-04-24 22:29 | 35.44890 | -7.79870 | 35143 ft | 477 kts | 226° |
| 2026-04-24 22:29 | 35.39730 | -7.84969 | 35149 ft | 476 kts | 226° |
| 2026-04-24 22:30 | 35.34589 | -7.90108 | 35154 ft | 476 kts | 226° |
| 2026-04-24 22:30 | 35.29463 | -7.95245 | 35156 ft | 476 kts | 226° |
| 2026-04-24 22:31 | 35.24365 | -8.00337 | 35152 ft | 476 kts | 226° |
| 2026-04-24 22:31 | 35.19229 | -8.05451 | 35154 ft | 476 kts | 226° |
| 2026-04-24 22:32 | 35.14084 | -8.10559 | 35152 ft | 476 kts | 226° |
| 2026-04-24 22:32 | 35.08934 | -8.15652 | 35151 ft | 476 kts | 226° |
| 2026-04-24 22:33 | 35.03802 | -8.20741 | 35157 ft | 475 kts | 226° |
| 2026-04-24 22:33 | 34.98654 | -8.25825 | 35156 ft | 475 kts | 226° |
| 2026-04-24 22:34 | 34.93506 | -8.30899 | 35144 ft | 475 kts | 226° |
| 2026-04-24 22:34 | 34.88375 | -8.35956 | 35125 ft | 474 kts | 226° |
| 2026-04-24 22:35 | 34.83258 | -8.40997 | 35147 ft | 473 kts | 226° |
| 2026-04-24 22:35 | 34.78150 | -8.46022 | 35165 ft | 472 kts | 226° |
| 2026-04-24 22:36 | 34.73036 | -8.51038 | 35165 ft | 471 kts | 226° |
| 2026-04-24 22:36 | 34.67958 | -8.56007 | 35162 ft | 471 kts | 226° |
| 2026-04-24 22:37 | 34.62863 | -8.60992 | 35165 ft | 470 kts | 226° |
| 2026-04-24 22:37 | 34.57766 | -8.65956 | 35166 ft | 470 kts | 226° |
| 2026-04-24 22:38 | 34.52659 | -8.70914 | 35161 ft | 469 kts | 226° |
| 2026-04-24 22:38 | 34.47565 | -8.75852 | 35143 ft | 470 kts | 224° |
| 2026-04-24 22:39 | 34.41711 | -8.79660 | 35137 ft | 488 kts | 205° |
| 2026-04-24 22:39 | 34.35096 | -8.81756 | 35157 ft | 492 kts | 200° |
| 2026-04-24 22:40 | 34.28450 | -8.83765 | 35158 ft | 491 kts | 201° |
| 2026-04-24 22:40 | 34.21815 | -8.85785 | 35158 ft | 491 kts | 201° |
| 2026-04-24 22:41 | 34.15187 | -8.87793 | 35135 ft | 491 kts | 201° |
| 2026-04-24 22:41 | 34.09698 | -8.89447 | 35150 ft | 490 kts | 201° |
| 2026-04-24 22:42 | 34.01976 | -8.91775 | 35161 ft | 489 kts | 201° |
| 2026-04-24 22:42 | 33.95387 | -8.93766 | 35157 ft | 488 kts | 201° |
| 2026-04-24 22:43 | 33.89909 | -8.95417 | 35161 ft | 488 kts | 201° |
| 2026-04-24 22:43 | 33.83321 | -8.97392 | 35153 ft | 487 kts | 201° |
| 2026-04-24 22:44 | 33.76759 | -8.99355 | 35162 ft | 486 kts | 201° |
| 2026-04-24 22:44 | 33.70211 | -9.01320 | 35162 ft | 485 kts | 201° |
| 2026-04-24 22:45 | 33.63659 | -9.03284 | 35157 ft | 484 kts | 201° |
| 2026-04-24 22:45 | 33.57126 | -9.05228 | 35150 ft | 483 kts | 200° |
| 2026-04-24 22:46 | 33.50612 | -9.07165 | 35159 ft | 481 kts | 201° |
| 2026-04-24 22:46 | 33.44154 | -9.09098 | 35149 ft | 480 kts | 200° |
| 2026-04-24 22:47 | 33.37665 | -9.11021 | 35166 ft | 479 kts | 200° |
| 2026-04-24 22:47 | 33.31208 | -9.12934 | 35153 ft | 477 kts | 200° |
| 2026-04-24 22:48 | 33.24769 | -9.14844 | 35158 ft | 475 kts | 200° |
| 2026-04-24 22:48 | 33.18355 | -9.16738 | 35158 ft | 474 kts | 200° |
| 2026-04-24 22:49 | 33.11960 | -9.18632 | 35159 ft | 473 kts | 200° |
| 2026-04-24 22:49 | 33.05563 | -9.20530 | 35153 ft | 473 kts | 200° |
| 2026-04-24 22:50 | 32.99182 | -9.22425 | 35144 ft | 473 kts | 200° |
| 2026-04-24 22:50 | 32.92802 | -9.24314 | 35156 ft | 473 kts | 200° |
| 2026-04-24 22:51 | 32.86466 | -9.26187 | 35161 ft | 470 kts | 200° |
| 2026-04-24 22:51 | 32.80132 | -9.28060 | 35145 ft | 468 kts | 200° |
| 2026-04-24 22:52 | 32.73783 | -9.29926 | 35149 ft | 466 kts | 200° |
| 2026-04-24 22:52 | 32.67530 | -9.31763 | 35153 ft | 465 kts | 200° |
| 2026-04-24 22:53 | 32.61244 | -9.33612 | 35146 ft | 465 kts | 200° |
| 2026-04-24 22:53 | 32.54974 | -9.35446 | 35143 ft | 464 kts | 200° |
| 2026-04-24 22:54 | 32.48704 | -9.37284 | 35134 ft | 463 kts | 199° |
| 2026-04-24 22:54 | 32.42461 | -9.39116 | 35140 ft | 462 kts | 199° |
| 2026-04-24 22:55 | 32.36227 | -9.40934 | 35137 ft | 461 kts | 199° |
| 2026-04-24 22:55 | 32.29989 | -9.42750 | 35136 ft | 461 kts | 199° |
| 2026-04-24 22:56 | 32.23840 | -9.44547 | 34383 ft | 463 kts | 199° |
| 2026-04-24 22:56 | 32.20710 | -9.45461 | 33494 ft | 465 kts | 199° |
| 2026-04-24 22:56 | 32.17559 | -9.46380 | 32563 ft | 468 kts | 198° |
| 2026-04-24 22:57 | 32.14390 | -9.47302 | 31672 ft | 469 kts | 198° |
| 2026-04-24 22:57 | 32.11214 | -9.48224 | 30863 ft | 470 kts | 198° |
| 2026-04-24 22:57 | 32.08087 | -9.49123 | 30704 ft | 455 kts | 198° |
| 2026-04-24 22:57 | 32.05058 | -9.49988 | 30584 ft | 440 kts | 198° |
| 2026-04-24 22:58 | 32.02135 | -9.50827 | 30455 ft | 426 kts | 198° |
| 2026-04-24 22:58 | 31.99299 | -9.51648 | 30333 ft | 412 kts | 198° |
| 2026-04-24 22:58 | 31.96546 | -9.52446 | 29435 ft | 408 kts | 198° |
| 2026-04-24 22:58 | 31.93757 | -9.53262 | 27897 ft | 418 kts | 198° |
| 2026-04-24 22:59 | 31.90907 | -9.54099 | 26360 ft | 427 kts | 198° |
| 2026-04-24 22:59 | 31.88016 | -9.54971 | 25096 ft | 428 kts | 199° |
| 2026-04-24 22:59 | 31.82682 | -9.57690 | 22703 ft | 412 kts | 223° |
| 2026-04-24 23:00 | 31.80701 | -9.60091 | 21315 ft | 409 kts | 233° |
| 2026-04-24 23:00 | 31.78875 | -9.62653 | 20052 ft | 409 kts | 234° |
| 2026-04-24 23:00 | 31.77051 | -9.65212 | 18911 ft | 407 kts | 233° |
| 2026-04-24 23:00 | 31.75238 | -9.67750 | 17744 ft | 404 kts | 233° |
| 2026-04-24 23:01 | 31.73452 | -9.70284 | 16599 ft | 401 kts | 232° |
| 2026-04-24 23:01 | 31.71709 | -9.72767 | 15365 ft | 401 kts | 234° |
| 2026-04-24 23:01 | 31.69940 | -9.75325 | 14183 ft | 402 kts | 232° |
| 2026-04-24 23:01 | 31.67987 | -9.77508 | 13979 ft | 377 kts | 215° |
| 2026-04-24 23:02 | 31.65676 | -9.78689 | 13855 ft | 352 kts | 192° |
| 2026-04-24 23:02 | 31.63408 | -9.78912 | 13522 ft | 336 kts | 178° |
| 2026-04-24 23:02 | 31.61164 | -9.78375 | 12944 ft | 326 kts | 153° |
| 2026-04-24 23:02 | 31.59323 | -9.76944 | 12429 ft | 310 kts | 137° |
| 2026-04-24 23:03 | 31.57672 | -9.75315 | 11107 ft | 314 kts | 137° |
| 2026-04-24 23:03 | 31.56010 | -9.73635 | 9829 ft | 315 kts | 136° |
| 2026-04-24 23:03 | 31.54372 | -9.71962 | 8623 ft | 309 kts | 134° |
| 2026-04-24 23:03 | 31.52682 | -9.70468 | 7638 ft | 301 kts | 152° |
| 2026-04-24 23:04 | 31.50722 | -9.69895 | 7062 ft | 286 kts | 178° |
| 2026-04-24 23:04 | 31.48816 | -9.70332 | 6352 ft | 279 kts | 204° |
| 2026-04-24 23:04 | 31.47188 | -9.71554 | 5685 ft | 276 kts | 212° |
| 2026-04-24 23:04 | 31.45524 | -9.72634 | 5081 ft | 269 kts | 202° |
| 2026-04-24 23:05 | 31.43872 | -9.73462 | 4807 ft | 251 kts | 198° |
| 2026-04-24 23:05 | 31.42271 | -9.74203 | 4318 ft | 246 kts | 198° |
| 2026-04-24 23:05 | 31.40706 | -9.74929 | 3995 ft | 239 kts | 197° |
| 2026-04-24 23:05 | 31.39201 | -9.75653 | 3641 ft | 229 kts | 198° |
| 2026-04-24 23:06 | 31.37757 | -9.76338 | 3285 ft | 219 kts | 190° |
| 2026-04-24 23:06 | 31.36314 | -9.76400 | 2874 ft | 201 kts | 157° |
| 2026-04-24 23:06 | 31.35027 | -9.75869 | 2373 ft | 196 kts | 150° |
| 2026-04-24 23:06 | 31.33765 | -9.75319 | 2099 ft | 187 kts | 149° |
| 2026-04-24 23:07 | 31.32615 | -9.74789 | 1980 ft | 161 kts | 131° |
| 2026-04-24 23:07 | 31.32164 | -9.73858 | 1801 ft | 121 kts | 73° |
| 2026-04-24 23:07 | 31.32384 | -9.72934 | 1710 ft | 126 kts | 69° |
| 2026-04-24 23:07 | 31.32612 | -9.71930 | 1545 ft | 131 kts | 66° |
| 2026-04-24 23:08 | 31.32926 | -9.70961 | 1766 ft | 124 kts | 59° |
| 2026-04-24 23:08 | 31.33347 | -9.70104 | 1858 ft | 121 kts | 50° |
| 2026-04-24 23:08 | 31.33965 | -9.69444 | 1902 ft | 123 kts | 42° |
| 2026-04-24 23:08 | 31.34537 | -9.68684 | 1731 ft | 123 kts | 53° |
| 2026-04-24 23:09 | 31.35035 | -9.67865 | 1589 ft | 126 kts | 51° |
| 2026-04-24 23:09 | 31.35691 | -9.67223 | 1417 ft | 127 kts | 25° |
| 2026-04-24 23:09 | 31.36590 | -9.67095 | 1166 ft | 139 kts | 0° |
| 2026-04-24 23:09 | 31.37552 | -9.67307 | 833 ft | 141 kts | 349° |
| 2026-04-24 23:10 | 31.38485 | -9.67659 | 557 ft | 142 kts | 343° |
| 2026-04-24 23:10 | 31.39389 | -9.68060 | 406 ft | 130 kts | 342° |
| 2026-04-24 23:10 | 31.40083 | -9.68373 | 393 ft | 69 kts | 339° |
| 2026-04-24 23:10 | 31.40397 | -9.68512 | 393 ft | 40 kts | 339° |
| 2026-04-24 23:11 | 31.40563 | -9.68616 | 395 ft | 17 kts | 285° |
| 2026-04-24 23:11 | 31.40540 | -9.68710 | 390 ft | 8 kts | 245° |
| 2026-04-24 23:11 | 31.40499 | -9.68747 | 393 ft | 7 kts | 187° |
| 2026-04-24 23:11 | 31.40457 | -9.68734 | 393 ft | 6 kts | 158° |
| 2026-04-24 23:12 | 31.40421 | -9.68717 | 393 ft | 5 kts | 157° |
| 2026-04-24 23:12 | 31.40392 | -9.68710 | 393 ft | 4 kts | 195° |
| 2026-04-24 23:12 | 31.40374 | -9.68732 | 393 ft | 6 kts | 247° |
| 2026-04-24 23:12 | 31.40367 | -9.68758 | 393 ft | 1 kts | 262° |
| 2026-04-24 23:13 | 31.40371 | -9.68761 | 393 ft | 1 kts | 320° |
| 2026-04-24 23:13 | 31.40382 | -9.68757 | 393 ft | 0 kts | 18° |
| 2026-04-24 23:13 | 31.40390 | -9.68753 | 393 ft | 1 kts | 19° |
| 2026-04-24 23:13 | 31.40392 | -9.68753 | 393 ft | 0 kts | 19° |